»·PEaware :: QXE2307 KPDX-KSEA

QXE2307 :: KPDX-KSEA

FLIGHT INFORMATION

Flight Status: Arrived
Operator:
Horizon Air
More flights by this operator :: More flights under this callsign
Pilot: Adlai G. (28854)
Aircraft: DEHAVILLAND DASH 8 400
(DH8D)
More flights by this aircraft type
Origin: KPDX Portland Intl
United States
Destination: KSEA Seattle-Tacoma Intl
United States
More flights between these airports :: More routes between these airports
Route: +PTLD1 COUGA KRIEG HAWKZ7
File this flight plan on PilotEdge
Remarks:
Altitude:
(Current/Filed)
16,000ft
Speed:
(Current/Filed)
361kts
Departed: 10-May-20 06:35 PM
Arrived: 10-May-20 07:04 PM
Distance/Time
Traveled:
112nm/0:29
Distance/Time
To Go:
Arrived

Flight Plot

Page will automatically refresh every two minutes.

Flight plan parsing failed; only flown route is shown


Map Options




Map Legend


Flown Route
Filed Route
Departure Airport
Arrival Airport
Navaid (VOR, NDB)
Fix

Horizontal Profiles

Position Reports

Time Latitude Longitude Heading Altitude Ground
Speed
10-May-20 17:48 45.590609 -122.598669 208 37ft 0kts
10-May-20 17:49 45.590609 -122.598669 208 37ft 0kts
10-May-20 17:50 45.590609 -122.598669 208 37ft 0kts
10-May-20 17:51 45.590609 -122.598669 208 37ft 0kts
10-May-20 17:52 45.590609 -122.598669 208 37ft 0kts
10-May-20 17:53 45.590609 -122.598669 208 37ft 0kts
10-May-20 17:54 45.590609 -122.598669 208 37ft 0kts
10-May-20 17:55 45.590609 -122.598669 208 37ft 0kts
10-May-20 17:56 45.590609 -122.598669 208 37ft 0kts
10-May-20 17:57 45.590609 -122.598669 208 37ft 0kts
10-May-20 17:58 45.590609 -122.598669 208 37ft 0kts
10-May-20 17:59 45.590609 -122.598669 208 37ft 0kts
10-May-20 18:00 45.590609 -122.598669 208 37ft 0kts
10-May-20 18:01 45.590609 -122.598669 208 37ft 0kts
10-May-20 18:02 45.590609 -122.598669 208 37ft 0kts
10-May-20 18:03 45.590609 -122.598669 208 37ft 0kts
10-May-20 18:04 45.590609 -122.598669 208 37ft 0kts
10-May-20 18:05 45.590609 -122.598669 208 37ft 0kts
10-May-20 18:06 45.590609 -122.598669 208 37ft 0kts
10-May-20 18:07 45.590609 -122.598669 208 37ft 0kts
10-May-20 18:08 45.590609 -122.598669 208 37ft 0kts
10-May-20 18:09 45.590609 -122.598669 208 37ft 0kts
10-May-20 18:10 45.590609 -122.598669 208 37ft 0kts
10-May-20 18:11 45.590609 -122.598669 208 37ft 0kts
10-May-20 18:12 45.590609 -122.598669 208 37ft 0kts
10-May-20 18:13 45.590609 -122.598669 208 37ft 0kts
10-May-20 18:14 45.590609 -122.598669 208 37ft 0kts
10-May-20 18:15 45.590609 -122.598669 208 37ft 0kts
10-May-20 18:16 45.590609 -122.598669 208 37ft 0kts
10-May-20 18:17 45.590609 -122.598669 208 37ft 0kts
10-May-20 18:18 45.590609 -122.598669 208 37ft 0kts
10-May-20 18:19 45.590609 -122.598669 208 37ft 0kts
10-May-20 18:20 45.590609 -122.598669 208 37ft 0kts
10-May-20 18:21 45.590609 -122.598669 208 37ft 0kts
10-May-20 18:22 45.590609 -122.598669 208 37ft 0kts
10-May-20 18:23 45.590609 -122.598669 208 37ft 0kts
10-May-20 18:24 45.590609 -122.598669 208 37ft 0kts
10-May-20 18:25 45.591029 -122.598084 262 37ft 3kts
10-May-20 18:26 45.590962 -122.597755 299 37ft 0kts
10-May-20 18:27 45.590964 -122.597759 299 37ft 0kts
10-May-20 18:28 45.590974 -122.597786 299 37ft 0kts
10-May-20 18:29 45.591429 -122.598843 303 37ft 8kts
10-May-20 18:30 45.593518 -122.596558 42 37ft 4kts
10-May-20 18:31 45.594126 -122.595882 35 37ft 0kts
10-May-20 18:32 45.594137 -122.595872 35 37ft 0kts
10-May-20 18:33 45.594465 -122.594738 118 37ft 21kts
10-May-20 18:34 45.577022 -122.551205 119 1598ft 172kts
10-May-20 18:35 45.548613 -122.488118 123 4651ft 206kts
10-May-20 18:36 45.550318 -122.410052 44 7320ft 230kts
10-May-20 18:37 45.616412 -122.412668 339 9106ft 265kts
10-May-20 18:38 45.686439 -122.452568 336 10681ft 282kts
10-May-20 18:39 45.759386 -122.495812 337 12218ft 285kts
10-May-20 18:40 45.833601 -122.535950 337 13793ft 284kts
10-May-20 18:41 45.908045 -122.576406 337 15162ft 289kts
10-May-20 18:42 45.985240 -122.618825 337 15970ft 311kts
10-May-20 18:43 46.070093 -122.665339 337 16017ft 340kts
10-May-20 18:44 46.164542 -122.692542 353 16018ft 355kts
10-May-20 18:45 46.263350 -122.710667 350 16019ft 360kts
10-May-20 18:46 46.363020 -122.725405 359 16023ft 362kts
10-May-20 18:47 46.463456 -122.727174 358 16025ft 362kts
10-May-20 18:48 46.564140 -122.730871 358 16026ft 362kts
10-May-20 18:50 46.663901 -122.734573 358 14581ft 355kts
10-May-20 18:51 46.760680 -122.737742 3 12583ft 340kts
10-May-20 18:52 46.837930 -122.676956 40 12055ft 316kts
10-May-20 18:53 46.899489 -122.593232 45 10327ft 288kts
10-May-20 18:54 46.954964 -122.510933 47 8777ft 281kts
10-May-20 18:55 47.011682 -122.443062 30 7597ft 253kts
10-May-20 18:56 47.070614 -122.393758 30 6199ft 242kts
10-May-20 18:57 47.128505 -122.345853 23 6039ft 235kts
10-May-20 18:58 47.190936 -122.322598 14 5596ft 231kts
10-May-20 18:59 47.252865 -122.309902 2 4165ft 221kts
10-May-20 19:00 47.310822 -122.308625 0 2626ft 193kts
10-May-20 19:01 47.354478 -122.308481 359 1846ft 119kts
10-May-20 19:02 47.387924 -122.308134 359 1232ft 120kts
10-May-20 19:03 47.419354 -122.308116 358 684ft 111kts
10-May-20 19:04 47.443099 -122.307901 4 440ft 18kts
10-May-20 19:05 47.443597 -122.305960 90 440ft 4kts
10-May-20 19:06 47.443638 -122.304619 359 440ft 0kts
10-May-20 19:06 47.443638 -122.304619 359 440ft 0kts
10-May-20 19:08 47.443638 -122.304619 359 440ft 0kts
10-May-20 19:08 47.443638 -122.304619 359 440ft 0kts
10-May-20 19:10 47.443638 -122.304619 359 440ft 0kts
10-May-20 19:10 47.443638 -122.304619 359 440ft 0kts
10-May-20 19:11 47.443638 -122.304619 359 440ft 0kts
10-May-20 19:13 47.443638 -122.304619 359 440ft 0kts
10-May-20 19:13 47.443638 -122.304619 359 440ft 0kts
10-May-20 19:15 47.443638 -122.304619 359 440ft 0kts
10-May-20 19:15 47.443638 -122.304619 359 440ft 0kts
10-May-20 19:16 47.443638 -122.304619 359 440ft 0kts

Navigation Log

Ident Type
Flight plan parsing failed, navigation log unavailable